createdAt,value
2023-05-10T11:17:35.817Z,21.60
2023-05-10T11:20:12.056Z,21.45
2023-05-10T11:23:22.539Z,21.09
2023-05-10T11:29:09.750Z,23.50
2023-05-10T11:32:19.018Z,24.35
2023-05-10T11:35:00.674Z,24.01
2023-05-10T11:37:36.371Z,23.39
2023-05-10T11:40:26.014Z,23.34
2023-05-10T11:43:00.512Z,22.56
2023-05-10T11:46:24.006Z,21.97
2023-05-10T11:48:59.248Z,24.09
2023-05-10T11:51:44.195Z,24.86
2023-05-10T11:54:18.879Z,25.63
2023-05-10T11:56:55.400Z,25.97
2023-05-10T11:59:28.227Z,26.29
2023-05-10T12:02:13.469Z,26.16
2023-05-10T12:04:59.311Z,25.15
2023-05-10T12:07:38.208Z,26.30
2023-05-10T12:10:30.576Z,26.13
2023-05-10T12:13:03.658Z,26.25
2023-05-10T12:15:41.026Z,26.40
2023-05-10T12:18:30.909Z,26.03
2023-05-10T12:21:09.259Z,26.67
2023-05-10T12:24:12.145Z,26.72
2023-05-10T12:26:43.829Z,26.87
2023-05-10T12:29:21.990Z,27.24
2023-05-10T12:32:20.102Z,27.45
2023-05-10T12:34:51.931Z,26.44
2023-05-10T12:37:29.918Z,27.32
2023-05-10T12:41:31.800Z,26.64
2023-05-10T12:44:26.613Z,26.92
2023-05-10T12:48:18.983Z,28.47
2023-05-10T12:50:31.535Z,28.02
2023-05-10T12:53:03.682Z,28.14
2023-05-10T12:55:33.093Z,28.30
2023-05-10T12:58:08.376Z,28.58
2023-05-10T13:00:39.235Z,28.81
2023-05-10T13:03:14.016Z,28.66
2023-05-10T13:05:44.428Z,28.48
2023-05-10T13:08:15.427Z,28.39
2023-05-10T13:10:48.197Z,28.03
2023-05-10T13:13:18.114Z,27.72
2023-05-10T13:16:04.549Z,27.26
2023-05-10T13:18:37.410Z,26.82
2023-05-10T13:21:09.172Z,26.46
2023-05-10T13:23:38.464Z,26.01
2023-05-10T13:26:18.694Z,25.81
2023-05-10T13:29:05.694Z,25.10
2023-05-10T13:31:35.035Z,24.85
2023-05-10T13:34:23.972Z,24.25
2023-05-10T13:36:54.395Z,23.39
2023-05-10T13:39:24.395Z,22.29
2023-05-10T13:42:14.914Z,20.92
2023-05-10T13:44:44.407Z,19.40
2023-05-10T13:47:50.189Z,18.57
2023-05-10T13:50:21.333Z,17.33
2023-05-10T13:52:50.733Z,16.93
2023-05-10T13:55:22.554Z,16.33
2023-05-10T13:57:51.757Z,15.76
2023-05-10T14:00:22.644Z,15.37
2023-05-10T14:02:52.018Z,14.98
2023-05-10T14:05:26.662Z,14.62
2023-05-10T14:08:13.238Z,14.22
2023-05-10T14:10:42.826Z,13.91
2023-05-10T14:13:31.717Z,13.39
2023-05-10T14:16:18.437Z,13.26
2023-05-10T14:18:48.028Z,12.99
2023-05-10T14:21:19.067Z,12.53
2023-05-10T14:23:48.602Z,12.52
2023-05-10T14:26:34.862Z,12.22
2023-05-10T14:29:04.264Z,11.94
2023-05-10T14:31:39.425Z,11.87
2023-05-10T14:34:09.030Z,11.92
2023-05-10T14:36:40.935Z,11.80
2023-05-10T14:39:41.854Z,11.41
2023-05-10T14:42:11.308Z,11.41
2023-05-10T14:44:40.968Z,11.50
2023-05-10T14:47:28.932Z,11.38
2023-05-10T14:49:59.655Z,11.17
2023-05-10T14:52:32.865Z,10.94
2023-05-10T14:55:39.083Z,10.74
2023-05-10T14:58:25.001Z,11.00
2023-05-10T15:00:54.414Z,10.70
2023-05-10T15:03:26.331Z,10.71
2023-05-10T15:05:57.647Z,10.39
2023-05-10T15:08:28.309Z,10.63
2023-05-10T15:11:00.121Z,10.56
2023-05-10T15:13:30.795Z,10.48
2023-05-10T15:16:00.526Z,10.41
2023-05-10T15:18:29.922Z,10.33
2023-05-10T15:20:59.457Z,10.24
2023-05-10T15:23:48.927Z,10.16
2023-05-10T15:26:18.575Z,9.57
2023-05-10T15:29:05.299Z,10.01
2023-05-10T15:31:36.351Z,9.94
2023-05-10T15:34:07.864Z,9.89
2023-05-10T15:36:54.147Z,9.64
2023-05-10T15:39:26.111Z,9.60
2023-05-10T15:41:55.295Z,9.37
2023-05-10T15:44:25.684Z,9.63
2023-05-10T15:46:55.412Z,9.32
2023-05-10T15:49:42.933Z,9.16
2023-05-10T15:52:13.348Z,9.03
2023-05-10T15:55:02.307Z,9.35
2023-05-10T15:57:31.524Z,9.23
2023-05-10T16:00:01.311Z,8.87
2023-05-10T16:02:31.104Z,9.18
2023-05-10T16:05:01.427Z,9.15
2023-05-10T16:07:31.062Z,8.53
2023-05-10T16:10:04.548Z,8.84
2023-05-10T16:12:51.922Z,8.93
2023-05-10T16:15:22.200Z,8.57
2023-05-10T16:17:51.865Z,7.81
2023-05-10T16:20:21.519Z,8.40
2023-05-10T16:22:50.960Z,8.00
2023-05-10T16:25:22.057Z,8.32
2023-05-10T16:27:51.665Z,7.83
2023-05-10T16:30:23.031Z,7.62
2023-05-10T16:32:53.445Z,8.26
2023-05-10T16:35:23.956Z,7.90
2023-05-10T16:37:53.689Z,8.07
2023-05-10T16:40:24.883Z,7.76
2023-05-10T16:43:11.211Z,7.04
2023-05-10T16:45:40.743Z,7.32
2023-05-10T16:48:10.342Z,7.15
2023-05-10T16:50:39.721Z,7.09
2023-05-10T16:53:09.421Z,7.26
2023-05-10T16:55:59.043Z,7.50
2023-05-10T16:58:45.543Z,6.87
2023-05-10T17:01:14.973Z,6.98
2023-05-10T17:04:03.024Z,7.19
2023-05-10T17:06:32.614Z,6.49
2023-05-10T17:09:01.993Z,6.70
2023-05-10T17:11:51.324Z,6.91
2023-05-10T17:14:20.886Z,6.63
2023-05-10T17:16:53.168Z,6.06
2023-05-10T17:19:25.555Z,6.51
2023-05-10T17:21:55.749Z,5.82
2023-05-10T17:24:25.392Z,6.19
2023-05-10T17:27:13.336Z,5.70
2023-05-10T17:29:42.705Z,5.88
2023-05-10T17:32:12.086Z,6.05
2023-05-10T17:34:41.552Z,5.98
2023-05-10T17:37:11.680Z,5.19
2023-05-10T17:39:41.367Z,5.17
2023-05-10T17:42:12.905Z,5.09
2023-05-10T17:44:42.313Z,5.50
2023-05-10T17:47:28.721Z,5.01
2023-05-10T17:49:58.161Z,5.34
2023-05-10T17:52:27.615Z,5.45
2023-05-10T17:55:14.355Z,4.50
2023-05-10T17:57:45.275Z,4.18
2023-05-10T18:00:16.210Z,4.73
2023-05-10T18:02:45.640Z,4.43
2023-05-10T18:05:36.811Z,5.05
2023-05-10T18:08:06.482Z,4.90
2023-05-10T18:10:35.880Z,4.88
2023-05-10T18:13:08.553Z,3.91
2023-05-10T18:15:38.156Z,4.58
2023-05-10T18:18:07.847Z,4.51
2023-05-10T18:20:37.478Z,4.01
2023-05-10T18:23:24.904Z,4.34
2023-05-10T18:25:54.602Z,4.13
2023-05-10T18:28:26.314Z,3.12
2023-05-10T18:30:55.754Z,3.79
2023-05-10T18:33:25.393Z,3.78
2023-05-10T18:35:54.973Z,3.86
2023-05-10T18:38:24.424Z,3.52
2023-05-10T18:40:53.851Z,3.31
2023-05-10T18:43:26.538Z,3.91
2023-05-10T18:45:55.854Z,3.88
2023-05-10T18:48:25.222Z,2.67
2023-05-10T18:51:13.059Z,3.81
2023-05-10T18:54:00.955Z,3.93
2023-05-10T18:56:30.415Z,3.72
2023-05-10T18:59:19.616Z,3.85
2023-05-10T19:02:07.139Z,3.79
2023-05-10T19:04:36.581Z,2.75
2023-05-10T19:07:05.925Z,2.84
2023-05-10T19:09:35.194Z,3.24
2023-05-10T19:12:23.037Z,3.64
2023-05-10T19:14:54.362Z,3.10
2023-05-10T19:17:40.820Z,3.29
2023-05-10T19:20:10.823Z,3.32
2023-05-10T19:23:09.026Z,3.23
2023-05-10T19:25:39.794Z,3.23
2023-05-10T19:28:26.080Z,2.50
2023-05-10T19:30:57.028Z,3.25
2023-05-10T19:33:26.483Z,2.42
2023-05-10T19:35:56.454Z,2.86
2023-05-10T19:39:01.355Z,3.20
2023-05-10T19:41:30.709Z,2.74
2023-05-10T19:44:18.507Z,2.38
2023-05-10T19:46:49.440Z,2.16
2023-05-10T19:49:19.299Z,2.35
2023-05-10T19:51:48.597Z,2.70
2023-05-10T19:54:36.267Z,3.03
2023-05-10T19:57:05.681Z,2.21
2023-05-10T19:59:35.060Z,2.73
2023-05-10T20:02:41.338Z,2.89
2023-05-10T20:05:11.303Z,1.49
2023-05-10T20:07:58.685Z,1.89
2023-05-10T20:10:27.965Z,2.56
2023-05-10T20:13:15.333Z,2.68
2023-05-10T20:16:01.593Z,2.14
2023-05-10T20:18:32.534Z,2.47
2023-05-10T20:21:02.893Z,1.65
2023-05-10T20:24:07.724Z,2.61
2023-05-10T20:26:36.941Z,2.34
2023-05-10T20:29:06.253Z,2.55
2023-05-10T20:32:10.927Z,2.52
2023-05-10T20:34:59.536Z,1.56
2023-05-10T20:37:29.176Z,2.02
2023-05-10T20:39:58.538Z,1.61
2023-05-10T20:42:27.853Z,1.45
2023-05-10T20:45:15.531Z,1.83
2023-05-10T20:47:44.813Z,2.45
2023-05-10T20:50:15.804Z,2.15
2023-05-10T20:52:45.127Z,2.01
2023-05-10T20:55:14.481Z,2.33
2023-05-10T20:57:45.656Z,2.14
2023-05-10T21:00:16.167Z,1.52
2023-05-10T21:03:01.477Z,1.42
2023-05-10T21:05:32.732Z,1.35
2023-05-10T21:08:20.375Z,2.28
2023-05-10T21:11:08.258Z,2.26
2023-05-10T21:13:37.579Z,1.90
2023-05-10T21:16:24.471Z,1.91
2023-05-10T21:18:53.741Z,1.93
2023-05-10T21:21:24.700Z,1.47
2023-05-10T21:23:53.976Z,1.93
2023-05-10T21:26:23.673Z,2.10
2023-05-10T21:29:10.955Z,2.09
2023-05-10T21:31:40.218Z,1.54
2023-05-10T21:34:09.647Z,1.25
2023-05-10T21:36:41.020Z,2.01
2023-05-10T21:39:10.882Z,1.44
2023-05-10T21:41:40.160Z,2.06
2023-05-10T21:44:09.412Z,1.32
2023-05-10T21:46:38.631Z,1.85
2023-05-10T21:49:08.646Z,1.26
2023-05-10T21:51:39.595Z,1.47
2023-05-10T21:54:08.875Z,1.69
2023-05-10T21:56:38.155Z,0.49
2023-05-10T21:59:07.917Z,0.85
2023-05-10T22:01:37.366Z,1.48
2023-05-10T22:04:06.720Z,1.79
2023-05-10T22:06:35.965Z,1.37
2023-05-10T22:09:07.031Z,1.47
2023-05-10T22:11:36.260Z,1.89
2023-05-10T22:14:05.632Z,1.71
2023-05-10T22:16:34.995Z,1.04
2023-05-10T22:19:04.398Z,1.83
2023-05-10T22:21:33.777Z,1.55
2023-05-10T22:24:20.136Z,1.78
2023-05-10T22:27:09.194Z,2.09
2023-05-10T22:29:38.371Z,1.37
2023-05-10T22:32:08.050Z,1.16
2023-05-10T22:34:37.285Z,0.76
2023-05-10T22:37:24.676Z,2.06
2023-05-10T22:39:54.104Z,2.06
2023-05-10T22:42:24.861Z,1.79
2023-05-10T22:44:54.275Z,2.00
2023-05-10T22:47:23.476Z,1.74
2023-05-10T22:49:52.810Z,1.81
2023-05-10T22:52:22.015Z,1.39
2023-05-10T22:55:09.447Z,2.12
2023-05-10T22:57:40.349Z,1.93
2023-05-10T23:00:11.426Z,2.08
2023-05-10T23:02:59.106Z,2.31
2023-05-10T23:05:46.810Z,1.90
2023-05-10T23:08:16.353Z,1.97
2023-05-10T23:11:03.668Z,1.93
2023-05-10T23:13:34.413Z,2.55
2023-05-10T23:16:21.959Z,2.86
2023-05-10T23:19:26.793Z,2.12
2023-05-10T23:21:56.081Z,2.51
2023-05-10T23:24:43.544Z,3.20
2023-05-10T23:27:30.579Z,2.79
2023-05-10T23:30:01.316Z,2.98
2023-05-10T23:32:47.543Z,3.51
2023-05-10T23:35:33.616Z,3.40
2023-05-10T23:38:02.841Z,3.15
2023-05-10T23:40:32.054Z,3.89
2023-05-10T23:43:01.357Z,3.92
2023-05-10T23:45:32.071Z,3.88
2023-05-10T23:48:01.406Z,3.94
2023-05-10T23:50:49.057Z,4.16
2023-05-10T23:53:18.545Z,3.23
2023-05-10T23:55:47.890Z,3.79
2023-05-10T23:58:17.175Z,3.80
